createdAt,value
2023-02-27T00:01:23.849Z,46.70
2023-02-27T00:03:52.205Z,46.60
2023-02-27T00:06:20.463Z,46.30
2023-02-27T00:08:48.977Z,46.70
2023-02-27T00:11:18.011Z,45.40
2023-02-27T00:13:46.569Z,44.20
2023-02-27T00:16:15.081Z,42.90
2023-02-27T00:18:44.648Z,44.00
2023-02-27T00:21:12.830Z,44.20
2023-02-27T00:23:41.009Z,44.00
2023-02-27T00:26:09.228Z,44.50
2023-02-27T00:28:38.065Z,42.40
2023-02-27T00:31:06.539Z,43.80
2023-02-27T00:33:35.173Z,43.80
2023-02-27T00:36:04.971Z,44.40
2023-02-27T00:38:33.673Z,43.70
2023-02-27T00:41:02.989Z,43.70
2023-02-27T00:43:31.364Z,43.60
2023-02-27T00:45:59.851Z,43.80
2023-02-27T00:48:30.251Z,43.20
2023-02-27T00:50:58.483Z,43.60
2023-02-27T00:53:28.243Z,43.20
2023-02-27T00:55:57.294Z,44.30
2023-02-27T00:58:25.476Z,44.20
2023-02-27T01:00:53.881Z,43.60
2023-02-27T01:03:22.045Z,44.10
2023-02-27T01:05:50.248Z,43.30
2023-02-27T01:08:20.308Z,42.80
2023-02-27T01:10:50.503Z,43.10
2023-02-27T01:13:18.660Z,44.70
2023-02-27T01:15:47.066Z,45.10
2023-02-27T01:18:15.276Z,45.40
2023-02-27T01:20:43.440Z,44.00
2023-02-27T01:23:14.490Z,44.30
2023-02-27T01:25:43.942Z,44.30
2023-02-27T01:28:13.479Z,44.10
2023-02-27T01:30:42.332Z,45.70
2023-02-27T01:33:10.506Z,46.60
2023-02-27T01:35:41.358Z,48.00
2023-02-27T01:38:09.733Z,46.60
2023-02-27T01:40:38.672Z,46.20
2023-02-27T01:43:15.254Z,46.20
2023-02-27T01:45:48.171Z,47.00
2023-02-27T01:48:19.353Z,49.30
2023-02-27T01:50:53.263Z,49.00
2023-02-27T01:53:24.932Z,49.00
2023-02-27T01:55:55.470Z,48.30
2023-02-27T01:58:24.249Z,49.40
2023-02-27T02:00:54.522Z,48.60
2023-02-27T02:03:30.798Z,48.30
2023-02-27T02:06:02.851Z,47.90
2023-02-27T02:08:35.335Z,47.80
2023-02-27T02:11:04.253Z,48.10
2023-02-27T02:13:33.542Z,48.80
2023-02-27T02:16:20.567Z,49.30
2023-02-27T02:18:54.827Z,50.80
2023-02-27T02:22:15.018Z,50.10
2023-02-27T02:25:15.468Z,49.60
2023-02-27T02:28:03.258Z,49.50
2023-02-27T02:30:57.854Z,49.20
2023-02-27T02:34:08.345Z,47.10
2023-02-27T02:37:10.583Z,48.10
2023-02-27T02:40:13.748Z,47.80
2023-02-27T02:42:49.106Z,47.90
2023-02-27T02:45:24.214Z,48.20
2023-02-27T02:48:03.033Z,49.40
2023-02-27T02:50:37.326Z,49.50
2023-02-27T02:53:10.536Z,48.40
2023-02-27T02:55:47.047Z,47.80
2023-02-27T02:58:23.788Z,48.50
2023-02-27T03:00:57.675Z,48.60
2023-02-27T03:03:30.076Z,49.90
2023-02-27T03:06:02.289Z,50.80
2023-02-27T03:08:34.365Z,51.10
2023-02-27T03:11:05.291Z,51.10
2023-02-27T03:13:40.317Z,49.60
2023-02-27T03:16:16.681Z,49.40
2023-02-27T03:18:49.457Z,49.90
2023-02-27T03:21:23.564Z,50.60
2023-02-27T03:23:54.614Z,50.90
2023-02-27T03:26:30.389Z,50.00
2023-02-27T03:29:04.986Z,49.30
2023-02-27T03:31:39.426Z,48.50
2023-02-27T03:34:17.858Z,48.30
2023-02-27T03:36:51.672Z,47.50
2023-02-27T03:39:28.365Z,49.20
2023-02-27T03:42:07.740Z,48.60
2023-02-27T03:45:01.921Z,48.00
2023-02-27T03:47:30.636Z,48.00
2023-02-27T03:49:59.013Z,48.00
2023-02-27T03:52:29.699Z,48.30
2023-02-27T03:55:03.223Z,49.40
2023-02-27T03:57:35.698Z,48.90
2023-02-27T04:00:06.156Z,48.30
2023-02-27T04:02:44.746Z,48.40
2023-02-27T04:05:15.642Z,48.30
2023-02-27T04:08:15.257Z,48.30
2023-02-27T04:11:00.491Z,48.00
2023-02-27T04:13:48.808Z,47.40
2023-02-27T04:16:41.008Z,48.50
2023-02-27T04:19:19.453Z,49.70
2023-02-27T04:21:58.405Z,50.50
2023-02-27T04:24:36.393Z,49.80
2023-02-27T04:27:14.357Z,49.60
2023-02-27T04:29:54.145Z,52.80
2023-02-27T04:32:31.728Z,54.00
2023-02-27T04:35:03.533Z,54.70
2023-02-27T04:37:38.807Z,55.30
2023-02-27T04:40:11.932Z,55.30
2023-02-27T04:42:45.676Z,55.20
2023-02-27T04:45:19.479Z,55.00
2023-02-27T04:47:53.328Z,55.10
2023-02-27T04:50:26.900Z,55.50
2023-02-27T04:53:01.164Z,53.70
2023-02-27T04:55:34.156Z,53.10
2023-02-27T04:58:07.919Z,54.30
2023-02-27T05:00:40.622Z,55.90
2023-02-27T05:03:13.731Z,55.70
2023-02-27T05:05:44.267Z,57.80
2023-02-27T05:08:19.278Z,55.60
2023-02-27T05:10:53.765Z,55.00
2023-02-27T05:13:27.322Z,54.60
2023-02-27T05:16:03.128Z,55.10
2023-02-27T05:18:31.719Z,54.30
2023-02-27T05:21:10.254Z,54.50
2023-02-27T05:23:44.935Z,55.90
2023-02-27T05:26:18.196Z,56.60
2023-02-27T05:28:55.088Z,55.60
2023-02-27T05:31:29.605Z,55.00
2023-02-27T05:34:05.538Z,54.70
2023-02-27T05:36:37.657Z,54.00
2023-02-27T05:39:08.952Z,54.50
2023-02-27T05:41:42.837Z,54.20
2023-02-27T05:44:15.327Z,55.00
2023-02-27T05:46:49.383Z,54.90
2023-02-27T05:49:23.340Z,54.00
2023-02-27T05:51:54.971Z,53.10
2023-02-27T05:54:31.303Z,56.10
2023-02-27T05:57:00.798Z,54.70
2023-02-27T05:59:35.614Z,54.20
2023-02-27T06:02:05.450Z,53.50
2023-02-27T06:04:33.675Z,53.90
2023-02-27T06:07:04.540Z,54.40
2023-02-27T06:09:32.752Z,54.20
2023-02-27T06:12:02.401Z,54.60
2023-02-27T06:14:30.620Z,53.50
2023-02-27T06:16:58.742Z,53.90
2023-02-27T06:19:28.540Z,53.70
2023-02-27T06:21:56.933Z,54.80
2023-02-27T06:24:25.519Z,55.30
2023-02-27T06:26:53.753Z,56.50
2023-02-27T06:29:21.921Z,56.10
2023-02-27T06:31:50.085Z,55.20
2023-02-27T06:34:18.249Z,54.10
2023-02-27T06:36:48.653Z,53.30
2023-02-27T06:39:17.000Z,52.60
2023-02-27T06:41:45.132Z,52.20
2023-02-27T06:44:13.272Z,52.10
2023-02-27T06:46:41.482Z,52.00
2023-02-27T06:49:09.630Z,52.70
2023-02-27T06:51:37.730Z,52.80
2023-02-27T06:54:08.075Z,52.90
2023-02-27T06:56:36.257Z,54.20
2023-02-27T06:59:04.419Z,56.00
2023-02-27T07:01:32.730Z,56.20
2023-02-27T07:04:01.424Z,56.90
2023-02-27T07:07:32.900Z,55.40
2023-02-27T07:09:19.509Z,58.90
2023-02-27T07:11:47.985Z,66.60
2023-02-27T07:14:17.038Z,58.20
2023-02-27T07:16:47.001Z,56.90
2023-02-27T07:19:15.476Z,57.10
2023-02-27T07:21:43.645Z,58.30
2023-02-27T07:24:12.274Z,58.40
2023-02-27T07:26:41.950Z,57.90
2023-02-27T07:29:10.576Z,57.50
2023-02-27T07:31:39.014Z,59.00
2023-02-27T07:34:07.361Z,59.20
2023-02-27T07:36:35.705Z,58.90
2023-02-27T07:39:05.335Z,59.00
2023-02-27T07:41:33.669Z,58.10
2023-02-27T07:44:03.525Z,58.00
2023-02-27T07:46:32.199Z,57.20
2023-02-27T07:49:00.736Z,57.00
2023-02-27T07:51:29.399Z,56.30
2023-02-27T07:53:58.318Z,56.10
2023-02-27T07:56:27.172Z,55.90
2023-02-27T07:58:55.599Z,55.30
2023-02-27T08:01:25.121Z,55.80
2023-02-27T08:03:53.961Z,54.10
2023-02-27T08:06:22.305Z,54.70
2023-02-27T08:08:50.627Z,53.50
2023-02-27T08:11:19.361Z,54.40
2023-02-27T08:14:00.091Z,53.40
2023-02-27T08:16:32.182Z,53.10
2023-02-27T08:19:00.882Z,51.70
2023-02-27T08:21:30.112Z,51.50
2023-02-27T08:23:58.789Z,50.70
2023-02-27T08:26:27.679Z,52.00
2023-02-27T08:28:56.148Z,50.40
2023-02-27T08:31:24.883Z,51.00
2023-02-27T08:34:04.444Z,51.20
2023-02-27T08:36:37.606Z,50.60
2023-02-27T08:39:06.598Z,50.70
2023-02-27T08:41:35.226Z,50.50
2023-02-27T08:44:03.800Z,48.00
2023-02-27T08:46:32.214Z,48.90
2023-02-27T08:49:01.831Z,48.20
2023-02-27T08:51:30.311Z,48.30
2023-02-27T08:53:59.207Z,47.60
2023-02-27T08:56:28.648Z,47.00
2023-02-27T08:58:57.964Z,47.00
2023-02-27T09:01:31.625Z,47.00
2023-02-27T09:04:01.860Z,46.80
2023-02-27T09:06:30.941Z,45.10
2023-02-27T09:09:00.310Z,46.70
2023-02-27T09:11:29.408Z,47.10
2023-02-27T09:13:59.224Z,45.50
2023-02-27T09:16:28.106Z,44.50
2023-02-27T09:18:56.866Z,45.50
2023-02-27T09:21:27.320Z,45.50
2023-02-27T09:24:02.496Z,46.30
2023-02-27T09:26:45.072Z,44.40
2023-02-27T09:29:14.083Z,44.30
2023-02-27T09:31:43.368Z,45.30
2023-02-27T09:34:11.534Z,45.30
2023-02-27T09:36:41.100Z,44.70
2023-02-27T09:39:10.349Z,44.60
2023-02-27T09:41:58.152Z,44.10
2023-02-27T09:44:45.720Z,45.00
2023-02-27T09:47:19.744Z,44.80
2023-02-27T09:50:01.783Z,44.00
2023-02-27T09:52:34.121Z,44.20
2023-02-27T09:55:03.207Z,46.20
2023-02-27T09:57:43.969Z,44.40
2023-02-27T10:00:31.821Z,43.80
2023-02-27T10:03:10.329Z,39.50
2023-02-27T10:05:48.071Z,37.40
2023-02-27T10:08:24.532Z,36.50
2023-02-27T10:11:00.872Z,32.20
2023-02-27T10:13:37.973Z,32.00
2023-02-27T10:16:08.221Z,28.70
2023-02-27T10:18:47.984Z,29.40
2023-02-27T10:21:20.999Z,28.50
2023-02-27T10:24:07.784Z,28.60
2023-02-27T10:26:40.453Z,28.50
2023-02-27T10:29:19.244Z,25.90
2023-02-27T10:31:54.350Z,28.50
2023-02-27T10:34:23.601Z,27.40
2023-02-27T10:36:52.371Z,27.30
2023-02-27T10:39:23.675Z,25.10
2023-02-27T10:41:52.781Z,25.80
2023-02-27T10:44:20.997Z,25.80
2023-02-27T10:46:51.816Z,25.40
2023-02-27T10:49:21.871Z,26.00
2023-02-27T10:52:07.480Z,24.20
2023-02-27T10:54:38.000Z,23.80
2023-02-27T10:57:19.805Z,20.90
2023-02-27T10:59:53.795Z,20.40
2023-02-27T11:02:24.948Z,22.30
2023-02-27T11:04:55.529Z,21.90
2023-02-27T11:07:35.512Z,23.80
2023-02-27T11:10:18.008Z,23.40
2023-02-27T11:13:00.287Z,22.60
2023-02-27T11:15:30.284Z,24.20
2023-02-27T11:18:21.885Z,23.40
2023-02-27T11:20:51.665Z,23.40
2023-02-27T11:23:22.559Z,22.00
2023-02-27T11:25:53.011Z,22.40
2023-02-27T11:28:25.201Z,21.60
2023-02-27T11:31:03.392Z,21.30
2023-02-27T11:33:35.805Z,21.70
2023-02-27T11:36:05.041Z,23.10
2023-02-27T11:38:34.742Z,23.30
2023-02-27T11:41:07.001Z,22.60
2023-02-27T11:43:40.282Z,23.80
2023-02-27T11:46:38.906Z,23.20
2023-02-27T11:49:07.716Z,23.50
2023-02-27T11:51:50.389Z,22.20
2023-02-27T11:54:27.047Z,21.60
2023-02-27T11:57:01.142Z,24.30
2023-02-27T11:59:38.231Z,22.00
2023-02-27T12:02:16.550Z,22.30
2023-02-27T12:04:49.723Z,23.40
2023-02-27T12:07:23.106Z,22.80
2023-02-27T12:10:00.922Z,20.00
2023-02-27T12:12:37.463Z,21.50
2023-02-27T12:15:17.646Z,20.80
2023-02-27T12:17:48.966Z,20.70
2023-02-27T12:20:26.618Z,21.20
2023-02-27T12:22:56.310Z,19.50
2023-02-27T12:25:42.977Z,20.50
2023-02-27T12:28:24.842Z,23.40
2023-02-27T12:31:13.153Z,19.80
2023-02-27T12:33:47.010Z,20.00
2023-02-27T12:36:16.579Z,21.80
2023-02-27T12:38:45.009Z,19.80
2023-02-27T12:41:27.656Z,18.40
2023-02-27T12:44:27.684Z,18.40
2023-02-27T12:47:05.263Z,18.40
2023-02-27T12:49:43.816Z,18.00
2023-02-27T12:52:24.742Z,17.90
2023-02-27T12:54:59.441Z,19.10
2023-02-27T12:57:48.008Z,19.20
2023-02-27T13:00:21.294Z,19.30
2023-02-27T13:03:00.146Z,20.00
2023-02-27T13:05:43.347Z,20.50
2023-02-27T13:08:39.831Z,19.70
2023-02-27T13:11:21.760Z,18.60
2023-02-27T13:13:54.532Z,20.80
2023-02-27T13:16:30.273Z,18.20
2023-02-27T13:19:03.255Z,18.40
2023-02-27T13:21:37.681Z,19.80
2023-02-27T13:24:24.164Z,20.00
2023-02-27T13:26:59.179Z,21.60
2023-02-27T13:29:35.004Z,20.30
2023-02-27T13:32:19.189Z,21.20
2023-02-27T13:34:51.147Z,19.50
2023-02-27T13:37:19.690Z,21.50
2023-02-27T13:39:59.646Z,18.70
2023-02-27T13:42:54.864Z,19.60
2023-02-27T13:46:02.919Z,19.90
2023-02-27T13:48:54.798Z,21.30
2023-02-27T13:51:59.694Z,19.80
2023-02-27T13:54:34.105Z,21.00
2023-02-27T13:57:21.344Z,20.50
2023-02-27T13:59:55.813Z,21.00
2023-02-27T14:02:37.468Z,20.70
2023-02-27T14:05:11.916Z,20.80
2023-02-27T14:07:55.507Z,20.00
2023-02-27T14:10:25.724Z,20.00
2023-02-27T14:12:54.314Z,20.00
2023-02-27T14:15:57.843Z,20.10
2023-02-27T14:18:51.768Z,21.20
2023-02-27T14:21:54.630Z,20.20
2023-02-27T14:24:28.676Z,22.50
2023-02-27T14:26:57.689Z,22.30
2023-02-27T14:29:31.481Z,23.10
2023-02-27T14:32:01.738Z,22.90
2023-02-27T14:34:30.474Z,21.80
2023-02-27T14:37:02.272Z,22.30
2023-02-27T14:39:33.724Z,22.90
2023-02-27T14:42:30.897Z,20.90
2023-02-27T14:44:59.264Z,20.80
2023-02-27T14:47:32.786Z,20.00
2023-02-27T14:50:02.160Z,22.00
2023-02-27T14:52:33.069Z,22.50
2023-02-27T14:55:17.859Z,21.80
2023-02-27T14:57:56.011Z,24.20
2023-02-27T15:00:39.016Z,24.30
2023-02-27T15:03:20.835Z,23.70
2023-02-27T15:05:50.227Z,23.40
2023-02-27T15:08:22.391Z,23.70
2023-02-27T15:10:52.445Z,23.20
2023-02-27T15:13:26.960Z,22.90
2023-02-27T15:16:19.781Z,23.10
2023-02-27T15:18:50.757Z,21.90
2023-02-27T15:21:26.974Z,21.00
2023-02-27T15:23:57.826Z,22.70
2023-02-27T15:26:27.198Z,23.00
2023-02-27T15:28:55.521Z,26.70
2023-02-27T15:31:26.884Z,28.20
2023-02-27T15:33:55.847Z,28.20
2023-02-27T15:36:27.089Z,29.30
2023-02-27T15:39:09.622Z,30.30
2023-02-27T15:41:38.213Z,31.40
2023-02-27T15:44:06.878Z,29.90
2023-02-27T15:46:35.240Z,31.50
2023-02-27T15:49:03.676Z,32.20
2023-02-27T15:51:31.807Z,32.40
2023-02-27T15:54:01.953Z,32.00
2023-02-27T15:56:36.705Z,31.80
2023-02-27T15:59:06.136Z,31.80
2023-02-27T16:01:36.029Z,32.10
2023-02-27T16:04:06.852Z,31.90
2023-02-27T16:06:39.374Z,33.30
2023-02-27T16:09:20.137Z,32.00
2023-02-27T16:11:50.449Z,32.50
2023-02-27T16:14:41.082Z,32.20
2023-02-27T16:17:30.631Z,31.90
2023-02-27T16:20:02.065Z,32.70
2023-02-27T16:22:30.801Z,31.20
2023-02-27T16:25:10.333Z,30.40
2023-02-27T16:27:40.937Z,29.80
2023-02-27T16:30:13.063Z,28.20
2023-02-27T16:32:44.024Z,28.60
2023-02-27T16:35:19.610Z,29.20
2023-02-27T16:37:48.100Z,29.10
2023-02-27T16:40:18.781Z,29.00
2023-02-27T16:42:48.392Z,30.80
2023-02-27T16:45:18.221Z,31.60
2023-02-27T16:47:48.959Z,30.50
2023-02-27T16:50:22.063Z,31.90
2023-02-27T16:52:50.283Z,32.80
2023-02-27T16:55:18.650Z,32.50
2023-02-27T16:57:48.179Z,31.90
2023-02-27T17:00:18.255Z,32.30
2023-02-27T17:02:47.086Z,32.00
2023-02-27T17:05:16.218Z,31.50
2023-02-27T17:07:45.902Z,31.60
2023-02-27T17:10:17.261Z,30.20
2023-02-27T17:12:46.949Z,30.50
2023-02-27T17:15:16.971Z,29.80
2023-02-27T17:17:46.029Z,30.80
2023-02-27T17:20:15.441Z,30.60
2023-02-27T17:22:45.360Z,29.70
2023-02-27T17:25:14.822Z,30.20
2023-02-27T17:27:43.984Z,30.80
2023-02-27T17:30:14.893Z,30.00
2023-02-27T17:32:44.384Z,30.80
2023-02-27T17:35:12.615Z,30.90
2023-02-27T17:37:40.760Z,31.70
2023-02-27T17:40:09.978Z,29.60
2023-02-27T17:42:39.314Z,30.00
2023-02-27T17:45:09.085Z,28.90
2023-02-27T17:47:37.704Z,27.90
2023-02-27T17:50:08.172Z,26.90
2023-02-27T17:52:37.001Z,28.00
2023-02-27T17:55:05.920Z,28.60
2023-02-27T17:57:36.661Z,27.30
2023-02-27T18:00:05.811Z,26.80
2023-02-27T18:02:36.023Z,28.00
2023-02-27T18:05:06.555Z,26.90
2023-02-27T18:07:35.518Z,25.50
2023-02-27T18:10:05.514Z,27.30
2023-02-27T18:12:34.312Z,25.20
2023-02-27T18:15:02.940Z,25.50
2023-02-27T18:17:31.185Z,25.90
2023-02-27T18:19:59.280Z,26.00
2023-02-27T18:22:29.977Z,25.70
2023-02-27T18:24:58.813Z,25.40
2023-02-27T18:27:28.122Z,24.90
2023-02-27T18:29:57.613Z,25.90
2023-02-27T18:32:25.904Z,26.40
2023-02-27T18:34:54.566Z,26.40
2023-02-27T18:37:22.742Z,27.50
2023-02-27T18:39:52.308Z,27.10
2023-02-27T18:42:20.717Z,25.90
2023-02-27T18:44:48.944Z,25.90
2023-02-27T18:47:17.142Z,26.00
2023-02-27T18:49:46.053Z,25.80
2023-02-27T18:52:14.595Z,25.80
2023-02-27T18:54:43.415Z,25.90
2023-02-27T18:57:13.293Z,26.00
2023-02-27T18:59:41.851Z,25.30
2023-02-27T19:02:15.453Z,25.80
2023-02-27T19:04:43.909Z,26.70
2023-02-27T19:07:12.316Z,26.20
2023-02-27T19:09:40.482Z,26.00
2023-02-27T19:12:10.730Z,26.80
2023-02-27T19:14:40.754Z,27.20
2023-02-27T19:17:09.052Z,26.30
2023-02-27T19:19:37.739Z,27.20
2023-02-27T19:22:06.008Z,26.50
2023-02-27T19:24:34.300Z,26.00
2023-02-27T19:27:02.564Z,24.70
2023-02-27T19:29:30.764Z,26.20
2023-02-27T19:32:02.281Z,25.70
2023-02-27T19:34:30.779Z,25.60
2023-02-27T19:36:58.890Z,25.70
2023-02-27T19:39:27.084Z,25.80
2023-02-27T19:41:55.238Z,25.90
2023-02-27T19:44:23.341Z,25.80
2023-02-27T19:46:53.141Z,26.00
2023-02-27T19:49:22.832Z,25.40
2023-02-27T19:51:51.077Z,24.90
2023-02-27T19:54:19.306Z,25.30
2023-02-27T19:56:47.534Z,25.20
2023-02-27T19:59:15.701Z,25.50
2023-02-27T20:01:44.039Z,24.80
2023-02-27T20:04:12.726Z,24.80
2023-02-27T20:06:44.026Z,24.70
2023-02-27T20:09:14.706Z,24.90
2023-02-27T20:11:43.519Z,25.50
2023-02-27T20:14:12.242Z,26.00
2023-02-27T20:16:41.250Z,25.80
2023-02-27T20:19:12.932Z,25.20
2023-02-27T20:21:42.881Z,24.40
2023-02-27T20:24:11.526Z,24.10
2023-02-27T20:26:41.342Z,23.60
2023-02-27T20:29:10.913Z,24.80
2023-02-27T20:31:40.599Z,25.00
2023-02-27T20:34:11.800Z,25.00
2023-02-27T20:36:42.583Z,25.20
2023-02-27T20:39:12.808Z,25.80
2023-02-27T20:41:41.186Z,24.20
2023-02-27T20:44:11.373Z,25.60
2023-02-27T20:46:40.975Z,24.00
2023-02-27T20:49:10.280Z,24.70
2023-02-27T20:51:40.086Z,24.80
2023-02-27T20:54:13.455Z,24.20
2023-02-27T20:56:43.326Z,24.70
2023-02-27T20:59:14.322Z,24.90
2023-02-27T21:01:47.436Z,25.10
2023-02-27T21:04:15.700Z,26.00
2023-02-27T21:06:46.560Z,25.20
2023-02-27T21:09:16.460Z,24.70
2023-02-27T21:11:44.664Z,25.40
2023-02-27T21:14:13.521Z,25.30
2023-02-27T21:16:41.681Z,24.10
2023-02-27T21:19:09.864Z,26.00
2023-02-27T21:21:38.374Z,25.70
2023-02-27T21:24:07.241Z,25.60
2023-02-27T21:26:39.004Z,26.30
2023-02-27T21:29:09.553Z,25.30
2023-02-27T21:31:39.268Z,25.70
2023-02-27T21:34:09.671Z,24.80
2023-02-27T21:36:43.098Z,26.10
2023-02-27T21:39:14.699Z,26.60
2023-02-27T21:41:45.178Z,25.80
2023-02-27T21:44:16.708Z,26.30
2023-02-27T21:46:45.236Z,26.50
2023-02-27T21:49:17.103Z,27.10
2023-02-27T21:51:46.060Z,27.40
2023-02-27T21:54:15.309Z,27.90
2023-02-27T21:56:46.528Z,28.00
2023-02-27T21:59:15.151Z,28.00
2023-02-27T22:01:47.125Z,28.30
2023-02-27T22:04:16.562Z,28.40
2023-02-27T22:06:45.040Z,27.30
2023-02-27T22:09:13.944Z,28.20
2023-02-27T22:11:42.562Z,28.30
2023-02-27T22:14:13.589Z,28.40
2023-02-27T22:16:42.510Z,28.50
2023-02-27T22:19:12.783Z,28.00
2023-02-27T22:21:41.800Z,28.30
2023-02-27T22:24:10.042Z,28.30
2023-02-27T22:26:38.645Z,28.10
2023-02-27T22:29:07.981Z,27.80
2023-02-27T22:31:39.372Z,27.80
2023-02-27T22:34:09.317Z,28.10
2023-02-27T22:36:37.616Z,28.40
2023-02-27T22:39:07.342Z,28.40
2023-02-27T22:41:37.448Z,28.60
2023-02-27T22:44:06.138Z,28.60
2023-02-27T22:46:36.732Z,28.80
2023-02-27T22:49:08.760Z,29.30
2023-02-27T22:51:37.493Z,29.60
2023-02-27T22:54:07.016Z,29.80
2023-02-27T22:56:36.916Z,31.10
2023-02-27T22:59:06.153Z,31.20
2023-02-27T23:01:36.529Z,30.20
2023-02-27T23:04:08.794Z,31.00
2023-02-27T23:06:39.897Z,31.30
2023-02-27T23:09:10.249Z,31.60
2023-02-27T23:11:38.894Z,31.10
2023-02-27T23:14:07.634Z,31.50
2023-02-27T23:16:35.823Z,31.60
2023-02-27T23:19:05.983Z,31.60
2023-02-27T23:21:37.988Z,32.50
2023-02-27T23:24:07.869Z,31.80
2023-02-27T23:26:37.590Z,31.70
2023-02-27T23:29:06.409Z,31.80
2023-02-27T23:31:36.352Z,31.50
2023-02-27T23:34:06.645Z,31.60
2023-02-27T23:36:35.546Z,31.90
2023-02-27T23:39:04.835Z,32.10
2023-02-27T23:41:33.748Z,32.40
2023-02-27T23:44:02.765Z,32.90
2023-02-27T23:46:31.254Z,33.30
2023-02-27T23:48:59.528Z,32.70
2023-02-27T23:51:30.618Z,33.60
2023-02-27T23:53:59.621Z,33.30
2023-02-27T23:56:30.115Z,33.80
2023-02-27T23:59:00.402Z,34.50
